Time;durP1;ratioP1;P1;durP2;ratioP2;P2;SDS_P1;SDS_P2;PMS_P1;PMS_P2;Temp;Humidity;BMP_temperature;BMP_pressure;BME280_temperature;BME280_humidity;BME280_pressure;Samples;Min_cycle;Max_cycle;Signal;HPM_P1;HPM_P2
2023/10/26 00:00:34;;;;;;;33.95;18.83;;;;;;;;;;5092391;28;20383;-73
2023/10/26 00:03:00;;;;;;;31.50;19.52;;;;;;;;;;5094464;28;20099;-73
2023/10/26 00:05:26;;;;;;;37.25;20.23;;;;;;;;;;5095398;28;20024;-73
2023/10/26 00:07:52;;;;;;;36.53;18.80;;;;;;;;;;5093580;28;20028;-73
2023/10/26 00:10:18;;;;;;;41.25;20.70;;;;;;;;;;5095210;28;20028;-75
2023/10/26 00:12:45;;;;;;;29.15;19.17;;;;;;;;;;5094835;28;20055;-74
2023/10/26 00:15:11;;;;;;;32.80;19.23;;;;;;;;;;5095365;28;20028;-74
2023/10/26 00:17:38;;;;;;;29.00;19.40;;;;;;;;;;5092551;28;20062;-74
2023/10/26 00:20:05;;;;;;;37.38;19.20;;;;;;;;;;5094347;28;20028;-73
2023/10/26 00:22:31;;;;;;;31.65;17.98;;;;;;;;;;5094574;28;20024;-73
2023/10/26 00:24:57;;;;;;;26.15;18.13;;;;;;;;;;5092195;28;20061;-73
2023/10/26 00:27:23;;;;;;;28.13;17.58;;;;;;;;;;5093813;28;20032;-75
2023/10/26 00:29:49;;;;;;;32.45;17.85;;;;;;;;;;5095841;28;20050;-75
2023/10/26 00:32:15;;;;;;;29.55;19.05;;;;;;;;;;5094699;28;20123;-75
2023/10/26 00:34:42;;;;;;;33.20;19.17;;;;;;;;;;5096084;28;20387;-75
2023/10/26 00:37:08;;;;;;;33.88;20.05;;;;;;;;;;5095678;28;20042;-75
2023/10/26 00:39:34;;;;;;;33.25;18.80;;;;;;;;;;5109879;28;20008;-74
2023/10/26 00:42:00;;;;;;;32.72;19.15;;;;;;;;;;5103398;28;20269;-73
2023/10/26 00:44:26;;;;;;;31.88;19.00;;;;;;;;;;5105720;28;20059;-73
2023/10/26 00:46:53;;;;;;;33.90;19.33;;;;;;;;;;5103115;28;20231;-74
2023/10/26 00:49:19;;;;;;;28.00;18.55;;;;;;;;;;5094637;28;20446;-78
2023/10/26 00:51:47;;;;;;;34.35;20.05;;;;;;;;;;5092129;28;20028;-74
2023/10/26 00:54:14;;;;;;;31.83;19.67;;;;;;;;;;5092272;28;20032;-73
2023/10/26 00:56:40;;;;;;;42.55;20.25;;;;;;;;;;5092484;28;20028;-74
2023/10/26 00:59:06;;;;;;;33.22;19.70;;;;;;;;;;5090445;28;20189;-73
2023/10/26 01:01:34;;;;;;;36.53;19.15;;;;;;;;;;5091634;28;20017;-75
2023/10/26 01:04:00;;;;;;;29.55;19.13;;;;;;;;;;5092498;28;20023;-75
2023/10/26 01:06:26;;;;;;;35.72;20.13;;;;;;;;;;5100207;28;20046;-74
2023/10/26 01:08:53;;;;;;;37.53;20.67;;;;;;;;;;5099423;28;20491;-74
2023/10/26 01:11:19;;;;;;;38.17;20.77;;;;;;;;;;5095321;28;20036;-74
2023/10/26 01:13:45;;;;;;;31.33;19.52;;;;;;;;;;5095527;28;20111;-74
2023/10/26 01:16:12;;;;;;;33.65;20.00;;;;;;;;;;5094647;28;20059;-77
2023/10/26 01:18:38;;;;;;;36.10;21.60;;;;;;;;;;5096070;28;20427;-76
2023/10/26 01:21:04;;;;;;;37.33;20.25;;;;;;;;;;5096369;28;20063;-73
2023/10/26 01:23:30;;;;;;;35.58;20.38;;;;;;;;;;5095745;28;20026;-72
2023/10/26 01:25:58;;;;;;;34.90;19.83;;;;;;;;;;5097048;28;20455;-74
2023/10/26 01:28:25;;;;;;;33.63;19.85;;;;;;;;;;5099480;28;20020;-73
2023/10/26 01:30:52;;;;;;;31.77;20.35;;;;;;;;;;5098975;28;20111;-71
2023/10/26 01:33:18;;;;;;;37.72;20.50;;;;;;;;;;5102765;28;20107;-73
2023/10/26 01:35:45;;;;;;;33.58;19.80;;;;;;;;;;5102447;28;20435;-73
2023/10/26 01:38:12;;;;;;;31.83;20.40;;;;;;;;;;5103875;28;20020;-73
2023/10/26 01:40:38;;;;;;;40.90;20.20;;;;;;;;;;5095666;28;20027;-73
2023/10/26 01:43:04;;;;;;;33.88;20.42;;;;;;;;;;5094199;28;20024;-73
2023/10/26 01:45:30;;;;;;;32.75;21.08;;;;;;;;;;5096349;28;20049;-72
2023/10/26 01:47:56;;;;;;;34.22;19.67;;;;;;;;;;5099938;28;20399;-73
2023/10/26 01:50:22;;;;;;;32.00;20.13;;;;;;;;;;5099334;28;20368;-73
2023/10/26 01:52:48;;;;;;;39.00;20.45;;;;;;;;;;5099503;28;20024;-73
2023/10/26 01:55:14;;;;;;;31.23;20.15;;;;;;;;;;5094710;28;20028;-73
2023/10/26 01:57:40;;;;;;;31.92;21.38;;;;;;;;;;5099371;28;20153;-73
2023/10/26 02:00:06;;;;;;;41.80;19.83;;;;;;;;;;5095052;28;20032;-73
2023/10/26 02:02:32;;;;;;;32.10;19.02;;;;;;;;;;5099191;28;20048;-73
2023/10/26 02:04:58;;;;;;;37.60;20.48;;;;;;;;;;5078406;28;20070;-73
2023/10/26 02:07:24;;;;;;;31.85;20.63;;;;;;;;;;5094748;28;20027;-74
2023/10/26 02:09:50;;;;;;;36.50;19.83;;;;;;;;;;5094700;28;20020;-73
2023/10/26 02:12:16;;;;;;;30.58;20.40;;;;;;;;;;5094474;28;20028;-74
2023/10/26 02:14:42;;;;;;;30.77;20.45;;;;;;;;;;5094529;28;20372;-73
2023/10/26 02:17:08;;;;;;;29.90;19.02;;;;;;;;;;5094330;28;20031;-73
2023/10/26 02:19:34;;;;;;;33.60;21.20;;;;;;;;;;5095694;28;20379;-72
2023/10/26 02:22:00;;;;;;;30.15;20.13;;;;;;;;;;5094244;28;20020;-72
2023/10/26 02:24:26;;;;;;;37.08;21.92;;;;;;;;;;5094361;28;20085;-73
2023/10/26 02:26:52;;;;;;;33.85;20.58;;;;;;;;;;5094339;28;20035;-73
2023/10/26 02:29:18;;;;;;;35.20;20.95;;;;;;;;;;5094667;28;20024;-73
2023/10/26 02:31:44;;;;;;;32.42;20.30;;;;;;;;;;5094253;28;20093;-73
2023/10/26 02:34:10;;;;;;;32.97;21.17;;;;;;;;;;5095298;28;20567;-73
2023/10/26 02:36:36;;;;;;;30.95;19.58;;;;;;;;;;5093970;28;20028;-73
2023/10/26 02:39:02;;;;;;;33.15;20.98;;;;;;;;;;5094076;28;20530;-73
2023/10/26 02:41:28;;;;;;;33.67;20.73;;;;;;;;;;5093771;28;20016;-74
2023/10/26 02:43:54;;;;;;;35.45;20.98;;;;;;;;;;5093821;28;20038;-73
2023/10/26 02:46:20;;;;;;;32.60;20.90;;;;;;;;;;5092729;28;20020;-73
2023/10/26 02:48:46;;;;;;;31.88;20.85;;;;;;;;;;5094092;28;20043;-73
2023/10/26 02:51:12;;;;;;;36.90;21.35;;;;;;;;;;5092459;28;20036;-74
2023/10/26 02:53:38;;;;;;;36.05;22.55;;;;;;;;;;5093826;28;20024;-73
2023/10/26 02:56:04;;;;;;;34.08;22.45;;;;;;;;;;5093755;28;20040;-74
2023/10/26 02:58:30;;;;;;;33.20;21.23;;;;;;;;;;5093830;28;20032;-75
2023/10/26 03:00:56;;;;;;;34.47;21.90;;;;;;;;;;5093929;28;20024;-73
2023/10/26 03:03:23;;;;;;;36.22;21.38;;;;;;;;;;5093075;28;20511;-72
2023/10/26 03:05:49;;;;;;;34.33;22.02;;;;;;;;;;5093742;28;20416;-72
2023/10/26 03:08:15;;;;;;;32.53;21.92;;;;;;;;;;5093313;28;20093;-72
2023/10/26 03:10:41;;;;;;;41.88;22.88;;;;;;;;;;5091805;28;20031;-73
2023/10/26 03:13:07;;;;;;;34.45;21.55;;;;;;;;;;5093635;28;20032;-72
2023/10/26 03:15:33;;;;;;;35.42;23.52;;;;;;;;;;5094262;28;20032;-73
2023/10/26 03:17:59;;;;;;;36.20;22.15;;;;;;;;;;5110911;28;20024;-73
2023/10/26 03:20:25;;;;;;;35.30;22.40;;;;;;;;;;5113836;28;20027;-72
2023/10/26 03:22:51;;;;;;;37.80;22.80;;;;;;;;;;5110023;28;20047;-74
2023/10/26 03:25:17;;;;;;;39.60;23.77;;;;;;;;;;5094254;28;20023;-73
2023/10/26 03:27:43;;;;;;;31.85;21.85;;;;;;;;;;5092581;28;20055;-73
2023/10/26 03:30:09;;;;;;;34.22;23.20;;;;;;;;;;5093132;28;20109;-74
2023/10/26 03:32:35;;;;;;;35.65;24.27;;;;;;;;;;5092632;28;20487;-74
2023/10/26 03:35:01;;;;;;;43.15;25.60;;;;;;;;;;5096860;28;20126;-79
2023/10/26 03:37:28;;;;;;;43.53;27.02;;;;;;;;;;5094029;28;20028;-74
2023/10/26 03:39:54;;;;;;;44.20;27.88;;;;;;;;;;5091641;28;20024;-74
2023/10/26 03:42:21;;;;;;;40.50;25.67;;;;;;;;;;5092606;28;20019;-74
2023/10/26 03:44:46;;;;;;;41.90;26.95;;;;;;;;;;5093462;28;20056;-73
2023/10/26 03:47:13;;;;;;;39.40;25.63;;;;;;;;;;5095210;28;20047;-75
2023/10/26 03:49:39;;;;;;;38.83;25.60;;;;;;;;;;5094124;28;20012;-72
2023/10/26 03:52:05;;;;;;;44.38;27.90;;;;;;;;;;5092976;28;20471;-73
2023/10/26 03:54:31;;;;;;;41.05;27.17;;;;;;;;;;5093682;28;20061;-74
2023/10/26 03:56:57;;;;;;;42.28;27.10;;;;;;;;;;5092689;28;20035;-73
2023/10/26 03:59:23;;;;;;;42.17;27.30;;;;;;;;;;5092797;28;20028;-74
2023/10/26 04:01:50;;;;;;;42.28;27.85;;;;;;;;;;5094044;28;20111;-75
2023/10/26 04:04:16;;;;;;;39.85;26.50;;;;;;;;;;5096429;28;20034;-73
2023/10/26 04:06:42;;;;;;;46.15;25.70;;;;;;;;;;5093795;28;20028;-72
2023/10/26 04:09:08;;;;;;;38.63;26.05;;;;;;;;;;5092418;28;20024;-72
2023/10/26 04:11:34;;;;;;;37.53;25.17;;;;;;;;;;5091949;28;20035;-74
2023/10/26 04:14:00;;;;;;;38.40;26.25;;;;;;;;;;5092321;28;20039;-73
2023/10/26 04:16:26;;;;;;;40.03;28.27;;;;;;;;;;5093447;28;20024;-73
2023/10/26 04:18:52;;;;;;;41.53;26.60;;;;;;;;;;5099843;28;20038;-73
2023/10/26 04:21:18;;;;;;;44.55;26.92;;;;;;;;;;5092217;28;20054;-73
2023/10/26 04:23:44;;;;;;;42.30;27.70;;;;;;;;;;5092074;28;20020;-72
2023/10/26 04:26:12;;;;;;;45.65;26.88;;;;;;;;;;5092224;28;20500;-73
2023/10/26 04:28:38;;;;;;;40.63;27.15;;;;;;;;;;5092162;28;20032;-73
2023/10/26 04:31:04;;;;;;;41.55;26.42;;;;;;;;;;5095627;28;20088;-72
2023/10/26 04:33:31;;;;;;;47.08;26.95;;;;;;;;;;5100421;28;20023;-74
2023/10/26 04:35:59;;;;;;;47.58;29.95;;;;;;;;;;5100112;28;20059;-74
2023/10/26 04:38:26;;;;;;;47.75;29.35;;;;;;;;;;5101469;28;20433;-74
2023/10/26 04:40:52;;;;;;;46.22;28.35;;;;;;;;;;5104883;28;20020;-75
2023/10/26 04:43:18;;;;;;;48.00;29.52;;;;;;;;;;5097437;28;20039;-74
2023/10/26 04:45:44;;;;;;;44.97;28.75;;;;;;;;;;5099294;28;20024;-74
2023/10/26 04:48:10;;;;;;;39.05;25.52;;;;;;;;;;5104962;28;20028;-73
2023/10/26 04:50:36;;;;;;;40.40;27.33;;;;;;;;;;5104546;28;20026;-73
2023/10/26 04:53:02;;;;;;;40.67;26.50;;;;;;;;;;5104061;28;20028;-73
2023/10/26 04:55:33;;;;;;;41.58;26.58;;;;;;;;;;5115299;28;20032;-73
2023/10/26 04:58:00;;;;;;;39.17;26.13;;;;;;;;;;5116755;28;20008;-74
2023/10/26 05:00:26;;;;;;;47.28;28.27;;;;;;;;;;5115385;28;20076;-73
2023/10/26 05:02:52;;;;;;;46.15;27.63;;;;;;;;;;5116580;28;20062;-71
2023/10/26 05:05:19;;;;;;;44.15;27.20;;;;;;;;;;5120491;28;20072;-72
2023/10/26 05:07:45;;;;;;;41.33;26.70;;;;;;;;;;5120793;28;20020;-73
2023/10/26 05:10:12;;;;;;;43.85;27.20;;;;;;;;;;5121423;28;20008;-72
2023/10/26 05:12:38;;;;;;;39.25;26.63;;;;;;;;;;5120962;28;20035;-73
2023/10/26 05:15:05;;;;;;;42.78;27.48;;;;;;;;;;5120981;28;20075;-73
2023/10/26 05:17:31;;;;;;;41.83;27.58;;;;;;;;;;5120614;28;20038;-73
2023/10/26 05:19:57;;;;;;;40.67;25.50;;;;;;;;;;5118122;28;20032;-75
2023/10/26 05:22:23;;;;;;;40.50;25.77;;;;;;;;;;5108888;28;20028;-73
2023/10/26 05:24:49;;;;;;;40.97;26.70;;;;;;;;;;5104888;28;20060;-74
2023/10/26 05:27:15;;;;;;;45.38;26.45;;;;;;;;;;5103000;28;20114;-73
2023/10/26 05:29:43;;;;;;;40.20;26.17;;;;;;;;;;5095542;28;20032;-74
2023/10/26 05:32:09;;;;;;;39.33;24.80;;;;;;;;;;5093689;28;20024;-73
2023/10/26 05:34:35;;;;;;;36.90;25.45;;;;;;;;;;5095433;28;20361;-74
2023/10/26 05:37:01;;;;;;;44.67;26.70;;;;;;;;;;5097519;28;20064;-72
2023/10/26 05:39:27;;;;;;;37.55;25.25;;;;;;;;;;5094829;28;20070;-73
2023/10/26 05:41:53;;;;;;;39.50;25.60;;;;;;;;;;5094549;28;20361;-73
2023/10/26 05:44:19;;;;;;;39.45;25.92;;;;;;;;;;5094881;28;20051;-72
2023/10/26 05:46:45;;;;;;;45.38;27.08;;;;;;;;;;5094679;28;20109;-73
2023/10/26 05:49:11;;;;;;;43.47;28.55;;;;;;;;;;5094551;28;20032;-74
2023/10/26 05:51:37;;;;;;;39.33;26.38;;;;;;;;;;5093864;28;20028;-74
2023/10/26 05:54:03;;;;;;;38.85;26.23;;;;;;;;;;5097647;28;20257;-73
2023/10/26 05:56:29;;;;;;;43.08;26.65;;;;;;;;;;5093964;28;20028;-74
2023/10/26 05:58:55;;;;;;;38.38;26.80;;;;;;;;;;5096803;28;20429;-75
2023/10/26 06:01:21;;;;;;;38.72;25.80;;;;;;;;;;5097079;28;20067;-73
2023/10/26 06:03:47;;;;;;;41.05;27.48;;;;;;;;;;5092851;28;20024;-72
2023/10/26 06:06:13;;;;;;;46.50;28.80;;;;;;;;;;5095740;28;20490;-71
2023/10/26 06:08:39;;;;;;;42.92;29.10;;;;;;;;;;5094168;28;20028;-72
2023/10/26 06:11:05;;;;;;;45.35;28.80;;;;;;;;;;5092678;28;20077;-73
2023/10/26 06:13:31;;;;;;;42.70;28.27;;;;;;;;;;5094220;28;20028;-72
2023/10/26 06:15:57;;;;;;;46.35;29.25;;;;;;;;;;5094211;28;20403;-74
2023/10/26 06:18:23;;;;;;;51.40;30.02;;;;;;;;;;5093831;28;20020;-74
2023/10/26 06:20:59;;;;;;;51.05;28.42;;;;;;;;;;5093611;28;20047;-73
2023/10/26 06:23:27;;;;;;;42.65;28.08;;;;;;;;;;5093574;28;20055;-73
2023/10/26 06:26:03;;;;;;;102.38;57.95;;;;;;;;;;5093901;28;20399;-73
2023/10/26 06:28:29;;;;;;;89.03;47.15;;;;;;;;;;5093995;28;20028;-72
2023/10/26 06:30:56;;;;;;;66.88;38.00;;;;;;;;;;5093812;28;20035;-74
2023/10/26 06:33:23;;;;;;;78.03;40.72;;;;;;;;;;5093696;28;20051;-73
2023/10/26 06:35:49;;;;;;;71.68;39.30;;;;;;;;;;5093645;28;20437;-73
2023/10/26 06:38:15;;;;;;;56.30;34.08;;;;;;;;;;5093213;28;20021;-74
2023/10/26 06:40:44;;;;;;;50.20;30.85;;;;;;;;;;5093589;28;20020;-75
2023/10/26 06:43:10;;;;;;;46.55;28.35;;;;;;;;;;5093813;28;20016;-75
2023/10/26 06:45:36;;;;;;;50.58;29.45;;;;;;;;;;5094102;28;20024;-73
2023/10/26 06:48:02;;;;;;;43.58;27.58;;;;;;;;;;5094132;28;20466;-73
2023/10/26 06:50:28;;;;;;;47.17;27.33;;;;;;;;;;5093947;28;20067;-73
2023/10/26 06:52:55;;;;;;;47.17;28.13;;;;;;;;;;5099405;28;20028;-73
2023/10/26 06:55:21;;;;;;;44.38;26.45;;;;;;;;;;5100141;28;20024;-74
2023/10/26 06:57:47;;;;;;;43.20;26.20;;;;;;;;;;5093461;28;20173;-74
2023/10/26 07:00:13;;;;;;;45.50;25.33;;;;;;;;;;5092944;28;20028;-74
2023/10/26 07:02:39;;;;;;;40.97;25.40;;;;;;;;;;5091734;28;20024;-73
2023/10/26 07:05:05;;;;;;;42.50;25.30;;;;;;;;;;5093077;28;20031;-73
2023/10/26 07:07:36;;;;;;;39.22;24.48;;;;;;;;;;5091925;28;20026;-74
2023/10/26 07:10:02;;;;;;;43.33;25.80;;;;;;;;;;5092858;28;20101;-74
2023/10/26 07:12:28;;;;;;;38.47;24.48;;;;;;;;;;5095081;28;20047;-76
2023/10/26 07:14:54;;;;;;;77.03;39.97;;;;;;;;;;5093537;28;20052;-73
2023/10/26 07:17:21;;;;;;;55.15;28.88;;;;;;;;;;5092487;28;20020;-74
2023/10/26 07:19:47;;;;;;;38.53;23.40;;;;;;;;;;5091530;28;20016;-73
2023/10/26 07:22:13;;;;;;;36.90;22.60;;;;;;;;;;5092762;28;20155;-74
2023/10/26 07:24:39;;;;;;;36.20;22.23;;;;;;;;;;5093330;28;20058;-73
2023/10/26 07:27:05;;;;;;;39.72;22.42;;;;;;;;;;5092954;28;20065;-73
2023/10/26 07:29:31;;;;;;;36.13;22.52;;;;;;;;;;5093241;28;20460;-73
2023/10/26 07:31:57;;;;;;;35.35;21.85;;;;;;;;;;5094772;28;20088;-74
2023/10/26 07:34:23;;;;;;;33.13;21.80;;;;;;;;;;5096197;28;20038;-73
2023/10/26 07:36:49;;;;;;;36.72;22.23;;;;;;;;;;5094331;28;20028;-73
2023/10/26 07:39:15;;;;;;;36.80;23.13;;;;;;;;;;5094112;28;20035;-73
2023/10/26 07:41:42;;;;;;;32.45;22.02;;;;;;;;;;5093801;28;20118;-73
2023/10/26 07:44:08;;;;;;;34.55;22.08;;;;;;;;;;5092717;28;20548;-75
2023/10/26 07:46:34;;;;;;;35.70;21.55;;;;;;;;;;5092507;28;20055;-73
2023/10/26 07:49:00;;;;;;;34.20;20.27;;;;;;;;;;5092329;28;20141;-73
2023/10/26 07:51:26;;;;;;;36.20;22.00;;;;;;;;;;5092328;28;20056;-73
2023/10/26 07:53:53;;;;;;;36.33;21.10;;;;;;;;;;5092584;28;20423;-72
2023/10/26 07:56:20;;;;;;;50.88;29.20;;;;;;;;;;5092882;28;20069;-73
2023/10/26 07:58:46;;;;;;;45.28;24.02;;;;;;;;;;5095761;28;20032;-73
2023/10/26 08:01:12;;;;;;;40.00;22.35;;;;;;;;;;5093020;28;20020;-73
2023/10/26 08:03:38;;;;;;;38.40;21.27;;;;;;;;;;5090967;28;20020;-74
2023/10/26 08:06:06;;;;;;;46.03;22.73;;;;;;;;;;5092118;28;20027;-74
2023/10/26 08:08:32;;;;;;;35.17;21.17;;;;;;;;;;5091737;28;20483;-73
2023/10/26 08:11:11;;;;;;;32.35;17.55;;;;;;;;;;5091962;28;20036;-72
2023/10/26 08:13:38;;;;;;;31.08;17.02;;;;;;;;;;5091784;28;20057;-74
2023/10/26 08:16:04;;;;;;;27.10;16.52;;;;;;;;;;5091941;28;20039;-73
2023/10/26 08:18:30;;;;;;;28.98;17.67;;;;;;;;;;5091884;28;20285;-74
2023/10/26 08:20:56;;;;;;;27.48;17.90;;;;;;;;;;5091862;28;20024;-74
2023/10/26 08:23:22;;;;;;;28.88;17.58;;;;;;;;;;5092138;28;20024;-74
2023/10/26 08:25:48;;;;;;;26.10;16.38;;;;;;;;;;5091943;28;20052;-74
2023/10/26 08:28:15;;;;;;;25.50;15.95;;;;;;;;;;5091522;28;20035;-73
2023/10/26 08:30:41;;;;;;;27.10;16.25;;;;;;;;;;5091406;28;20036;-73
2023/10/26 08:33:07;;;;;;;25.20;16.13;;;;;;;;;;5090510;28;20032;-72
2023/10/26 08:35:33;;;;;;;25.30;14.82;;;;;;;;;;5091296;28;20036;-73
2023/10/26 08:37:59;;;;;;;24.63;15.32;;;;;;;;;;5090021;28;20027;-74
2023/10/26 08:40:25;;;;;;;24.40;14.30;;;;;;;;;;5091375;28;20095;-75
2023/10/26 08:42:51;;;;;;;19.38;13.52;;;;;;;;;;5092254;28;20462;-74
2023/10/26 08:45:22;;;;;;;26.65;14.30;;;;;;;;;;5091914;28;20032;-73
2023/10/26 08:47:51;;;;;;;24.85;14.45;;;;;;;;;;5092003;28;20024;-74
2023/10/26 08:50:20;;;;;;;27.52;17.23;;;;;;;;;;5092179;28;20114;-74
2023/10/26 08:52:46;;;;;;;20.15;13.50;;;;;;;;;;5092749;28;20475;-73
2023/10/26 08:55:12;;;;;;;24.77;13.82;;;;;;;;;;5094817;28;20476;-74
2023/10/26 08:57:48;;;;;;;31.13;14.23;;;;;;;;;;5076580;28;20032;-73
2023/10/26 09:00:15;;;;;;;21.75;13.23;;;;;;;;;;5091248;28;20099;-73
2023/10/26 09:02:41;;;;;;;21.88;13.23;;;;;;;;;;5091489;28;20383;-74
2023/10/26 09:05:08;;;;;;;21.60;12.80;;;;;;;;;;5091526;28;20024;-72
2023/10/26 09:07:35;;;;;;;20.52;11.68;;;;;;;;;;5092776;28;20025;-74
2023/10/26 09:10:01;;;;;;;17.35;11.50;;;;;;;;;;5092020;28;20035;-74
2023/10/26 09:12:27;;;;;;;17.13;11.13;;;;;;;;;;5091098;28;20016;-74
2023/10/26 09:15:06;;;;;;;15.80;10.45;;;;;;;;;;5091411;28;20051;-74
2023/10/26 09:17:33;;;;;;;18.10;9.65;;;;;;;;;;5091048;28;20395;-74
2023/10/26 09:19:59;;;;;;;17.65;10.20;;;;;;;;;;5091100;28;20028;-73
2023/10/26 09:22:38;;;;;;;14.75;9.50;;;;;;;;;;5093891;28;20388;-72
2023/10/26 09:25:08;;;;;;;14.52;8.85;;;;;;;;;;5097366;28;20055;-73
2023/10/26 09:27:35;;;;;;;21.70;8.95;;;;;;;;;;5109250;28;20016;-73
2023/10/26 09:30:01;;;;;;;14.18;8.75;;;;;;;;;;5104673;28;20028;-73
2023/10/26 09:32:38;;;;;;;14.75;8.02;;;;;;;;;;5098178;28;20048;-73
2023/10/26 09:35:04;;;;;;;11.77;7.40;;;;;;;;;;5101236;28;20087;-73
2023/10/26 09:37:30;;;;;;;13.80;7.80;;;;;;;;;;5109218;28;20498;-73
2023/10/26 09:39:57;;;;;;;17.35;7.43;;;;;;;;;;5105692;28;20023;-73
2023/10/26 09:42:24;;;;;;;12.02;7.00;;;;;;;;;;5098823;28;20048;-74
2023/10/26 09:44:51;;;;;;;14.88;7.25;;;;;;;;;;5100874;28;20058;-73
2023/10/26 09:47:17;;;;;;;10.35;6.20;;;;;;;;;;5095066;28;20543;-73
2023/10/26 09:49:43;;;;;;;11.60;6.70;;;;;;;;;;5094761;28;20032;-72
2023/10/26 09:52:09;;;;;;;10.40;6.55;;;;;;;;;;5095136;28;20032;-73
2023/10/26 09:54:36;;;;;;;16.33;6.22;;;;;;;;;;5094952;28;20096;-74
2023/10/26 09:57:21;;;;;;;10.75;5.63;;;;;;;;;;5094820;28;20039;-74
2023/10/26 09:59:53;;;;;;;9.10;5.10;;;;;;;;;;5098030;28;20032;-74
2023/10/26 10:02:19;;;;;;;12.13;5.28;;;;;;;;;;5095993;28;20012;-73
2023/10/26 10:04:46;;;;;;;7.80;4.28;;;;;;;;;;5094755;28;20023;-74
2023/10/26 10:07:18;;;;;;;8.10;4.25;;;;;;;;;;5095982;28;20027;-74
2023/10/26 10:10:07;;;;;;;6.05;4.47;;;;;;;;;;5099603;28;20032;-73
2023/10/26 10:12:38;;;;;;;9.00;5.20;;;;;;;;;;5095697;28;20047;-74
2023/10/26 10:15:06;;;;;;;9.73;4.65;;;;;;;;;;5094045;28;20058;-72
2023/10/26 10:18:01;;;;;;;6.22;3.95;;;;;;;;;;5093800;28;20062;-73
2023/10/26 10:20:29;;;;;;;9.70;3.85;;;;;;;;;;5089758;28;20032;-75
2023/10/26 10:22:58;;;;;;;6.85;4.22;;;;;;;;;;5094384;28;20028;-74
2023/10/26 10:25:44;;;;;;;5.75;3.90;;;;;;;;;;5093985;28;20062;-74
2023/10/26 10:28:11;;;;;;;8.68;4.50;;;;;;;;;;5093955;28;20035;-73
2023/10/26 10:30:47;;;;;;;8.43;4.00;;;;;;;;;;5093590;28;20026;-72
2023/10/26 10:33:21;;;;;;;7.05;4.00;;;;;;;;;;5096119;28;20032;-75
2023/10/26 10:35:51;;;;;;;5.35;3.70;;;;;;;;;;5095807;28;20399;-73
2023/10/26 10:38:18;;;;;;;6.75;3.75;;;;;;;;;;5093648;28;20082;-74
2023/10/26 10:40:54;;;;;;;9.55;4.40;;;;;;;;;;5092044;28;20026;-73
2023/10/26 10:43:45;;;;;;;5.70;3.60;;;;;;;;;;5093495;28;20536;-74
2023/10/26 10:46:11;;;;;;;19.92;10.18;;;;;;;;;;5093800;28;20020;-74
2023/10/26 10:48:54;;;;;;;5.32;3.45;;;;;;;;;;5095748;28;20024;-73
2023/10/26 10:51:20;;;;;;;9.20;3.10;;;;;;;;;;5093748;28;20028;-72
2023/10/26 10:53:50;;;;;;;6.53;3.10;;;;;;;;;;5093501;28;20034;-73
2023/10/26 10:56:16;;;;;;;6.57;3.42;;;;;;;;;;5093540;28;20050;-74
2023/10/26 10:58:42;;;;;;;4.88;3.20;;;;;;;;;;5093598;28;20052;-75
2023/10/26 11:01:08;;;;;;;5.72;3.40;;;;;;;;;;5093224;28;20555;-73
2023/10/26 11:03:34;;;;;;;7.85;3.72;;;;;;;;;;5091960;28;20027;-78
2023/10/26 11:06:00;;;;;;;7.43;3.97;;;;;;;;;;5093462;28;20063;-74
2023/10/26 11:08:26;;;;;;;6.07;3.60;;;;;;;;;;5093445;28;20020;-73
2023/10/26 11:10:52;;;;;;;6.82;3.72;;;;;;;;;;5092901;28;20024;-73
2023/10/26 11:13:19;;;;;;;8.75;4.20;;;;;;;;;;5092826;28;20157;-74
2023/10/26 11:15:45;;;;;;;6.38;3.70;;;;;;;;;;5092979;28;20024;-72
2023/10/26 11:18:11;;;;;;;6.05;4.10;;;;;;;;;;5092913;28;20054;-74
2023/10/26 11:20:37;;;;;;;8.32;4.20;;;;;;;;;;5092754;28;20072;-73
2023/10/26 11:23:04;;;;;;;6.50;4.13;;;;;;;;;;5094196;28;20332;-73
2023/10/26 11:25:30;;;;;;;11.13;4.38;;;;;;;;;;5095257;28;20387;-75
2023/10/26 11:27:56;;;;;;;11.73;4.55;;;;;;;;;;5092775;28;20035;-74
2023/10/26 11:30:22;;;;;;;7.72;4.20;;;;;;;;;;5096909;28;20028;-74
2023/10/26 11:32:48;;;;;;;6.63;4.35;;;;;;;;;;5096986;28;20446;-75
2023/10/26 11:35:16;;;;;;;6.97;3.90;;;;;;;;;;5093759;28;20383;-76
2023/10/26 11:37:46;;;;;;;6.88;3.72;;;;;;;;;;5093819;28;20038;-74
2023/10/26 11:40:13;;;;;;;11.32;4.50;;;;;;;;;;5093472;28;20046;-74
2023/10/26 11:42:56;;;;;;;11.00;4.20;;;;;;;;;;5093211;28;20016;-73
2023/10/26 11:45:22;;;;;;;8.55;3.88;;;;;;;;;;5093686;28;20328;-73
2023/10/26 11:47:56;;;;;;;9.82;4.53;;;;;;;;;;5092604;28;20035;-75
2023/10/26 11:50:26;;;;;;;7.18;3.40;;;;;;;;;;5092631;28;20024;-77
2023/10/26 11:52:56;;;;;;;6.70;3.20;;;;;;;;;;5094653;28;20028;-72
2023/10/26 11:55:22;;;;;;;4.00;2.97;;;;;;;;;;5094813;28;20215;-76
2023/10/26 11:57:56;;;;;;;9.10;3.15;;;;;;;;;;5100063;28;20043;-74
2023/10/26 12:00:22;;;;;;;6.15;3.00;;;;;;;;;;5078604;28;20088;-74
2023/10/26 12:02:48;;;;;;;6.47;2.72;;;;;;;;;;5093101;28;20021;-74
2023/10/26 12:05:16;;;;;;;6.22;2.90;;;;;;;;;;5092678;28;20031;-73
2023/10/26 12:07:45;;;;;;;6.53;2.90;;;;;;;;;;5092210;28;20101;-74
2023/10/26 12:10:11;;;;;;;4.50;3.00;;;;;;;;;;5092103;28;20098;-73
2023/10/26 12:12:37;;;;;;;11.50;5.80;;;;;;;;;;5090755;28;20020;-75
2023/10/26 12:15:04;;;;;;;3.70;2.30;;;;;;;;;;5091812;28;20046;-73
2023/10/26 12:17:30;;;;;;;4.95;2.30;;;;;;;;;;5092753;28;20098;-74
2023/10/26 12:19:56;;;;;;;6.32;2.50;;;;;;;;;;5095385;28;20478;-75
2023/10/26 12:22:22;;;;;;;8.57;2.33;;;;;;;;;;5094969;28;20046;-73
2023/10/26 12:24:48;;;;;;;3.97;2.20;;;;;;;;;;5091970;28;20329;-74
2023/10/26 12:27:16;;;;;;;4.50;2.10;;;;;;;;;;5093081;28;20436;-73
2023/10/26 12:29:45;;;;;;;2.58;1.73;;;;;;;;;;5093646;28;20028;-75
2023/10/26 12:32:12;;;;;;;4.93;2.40;;;;;;;;;;5092068;28;20031;-73
2023/10/26 12:34:38;;;;;;;3.38;2.13;;;;;;;;;;5092649;28;20031;-73
2023/10/26 12:37:04;;;;;;;2.92;1.92;;;;;;;;;;5092112;28;20369;-75
2023/10/26 12:39:30;;;;;;;2.72;1.70;;;;;;;;;;5091764;28;20056;-75
2023/10/26 12:41:56;;;;;;;16.98;9.02;;;;;;;;;;5091916;28;20024;-73
2023/10/26 12:44:24;;;;;;;3.53;1.80;;;;;;;;;;5091627;28;20431;-74
2023/10/26 12:46:50;;;;;;;6.75;2.10;;;;;;;;;;5089945;28;20024;-73
2023/10/26 12:49:17;;;;;;;5.68;3.42;;;;;;;;;;5091947;28;20039;-77
2023/10/26 12:51:43;;;;;;;6.13;1.88;;;;;;;;;;5091278;28;20040;-73
2023/10/26 12:54:09;;;;;;;3.90;1.83;;;;;;;;;;5091443;28;20035;-74
2023/10/26 12:56:35;;;;;;;4.72;2.15;;;;;;;;;;5091474;28;20028;-76
2023/10/26 12:59:01;;;;;;;3.58;2.00;;;;;;;;;;5091382;28;20468;-75
2023/10/26 13:01:27;;;;;;;7.97;2.28;;;;;;;;;;5094311;28;20026;-74
2023/10/26 13:03:53;;;;;;;2.97;2.33;;;;;;;;;;5094636;28;20544;-75
2023/10/26 13:06:19;;;;;;;7.93;1.92;;;;;;;;;;5095270;28;20031;-73
2023/10/26 13:08:45;;;;;;;4.00;1.70;;;;;;;;;;5095450;28;20050;-74
2023/10/26 13:11:14;;;;;;;2.88;1.40;;;;;;;;;;5095086;28;20039;-80
2023/10/26 13:13:40;;;;;;;2.13;1.45;;;;;;;;;;5099032;28;20478;-74
2023/10/26 13:16:10;;;;;;;3.90;1.80;;;;;;;;;;5098412;28;20062;-75
2023/10/26 13:18:37;;;;;;;1.70;1.35;;;;;;;;;;5100438;28;20027;-72
2023/10/26 13:21:03;;;;;;;3.42;1.63;;;;;;;;;;5096798;28;20387;-74
2023/10/26 13:23:29;;;;;;;6.00;2.20;;;;;;;;;;5095435;28;20499;-74
2023/10/26 13:25:56;;;;;;;2.58;1.50;;;;;;;;;;5095269;28;20031;-73
2023/10/26 13:28:22;;;;;;;4.35;1.65;;;;;;;;;;5094966;28;20077;-75
2023/10/26 13:30:48;;;;;;;3.20;1.70;;;;;;;;;;5095036;28;20028;-73
2023/10/26 13:33:14;;;;;;;7.15;2.72;;;;;;;;;;5093493;28;20024;-74
2023/10/26 13:35:40;;;;;;;4.45;1.67;;;;;;;;;;5094963;28;20024;-74
2023/10/26 13:38:12;;;;;;;5.03;2.08;;;;;;;;;;5094917;28;20361;-74
2023/10/26 13:40:38;;;;;;;4.13;1.60;;;;;;;;;;5095743;28;20055;-74
2023/10/26 13:43:04;;;;;;;5.88;1.30;;;;;;;;;;5104558;28;20428;-73
2023/10/26 13:45:31;;;;;;;4.40;1.27;;;;;;;;;;5099913;28;20023;-74
2023/10/26 13:47:59;;;;;;;4.80;1.13;;;;;;;;;;5095680;28;20028;-73
2023/10/26 13:50:25;;;;;;;4.13;1.30;;;;;;;;;;5095181;28;20093;-74
2023/10/26 13:52:51;;;;;;;2.03;1.20;;;;;;;;;;5094409;28;20024;-74
2023/10/26 13:55:17;;;;;;;3.65;1.55;;;;;;;;;;5096034;28;20082;-72
2023/10/26 13:57:43;;;;;;;4.90;1.80;;;;;;;;;;5105896;28;20388;-73
2023/10/26 14:00:11;;;;;;;8.00;3.50;;;;;;;;;;5115455;28;20472;-74
2023/10/26 14:02:38;;;;;;;4.20;1.88;;;;;;;;;;5118309;28;20019;-74
2023/10/26 14:05:04;;;;;;;3.97;2.10;;;;;;;;;;5118256;28;20020;-72
2023/10/26 14:07:30;;;;;;;5.15;1.40;;;;;;;;;;5118406;28;20038;-74
2023/10/26 14:09:56;;;;;;;6.57;1.52;;;;;;;;;;5116843;28;20050;-74
2023/10/26 14:12:22;;;;;;;3.00;1.30;;;;;;;;;;5096229;28;20020;-74
2023/10/26 14:14:49;;;;;;;2.92;0.98;;;;;;;;;;5094670;28;20384;-75
2023/10/26 14:17:15;;;;;;;1.95;1.00;;;;;;;;;;5095912;28;20025;-73
2023/10/26 14:19:41;;;;;;;2.38;1.02;;;;;;;;;;5093829;28;20020;-73
2023/10/26 14:22:07;;;;;;;4.05;1.17;;;;;;;;;;5093422;28;20059;-72
2023/10/26 14:24:33;;;;;;;6.45;1.40;;;;;;;;;;5094123;28;20112;-74